sensor_id;sensor_type;location;lat;lon;timestamp;P1;durP1;ratioP1;P2;durP2;ratioP2
58516;SDS011;44308;50.810;0.284;2022-07-30T00:00:56;9.90;;;4.50;;
58516;SDS011;44308;50.810;0.284;2022-07-30T00:03:22;9.20;;;5.85;;
58516;SDS011;44308;50.810;0.284;2022-07-30T00:05:48;8.07;;;5.22;;
58516;SDS011;44308;50.810;0.284;2022-07-30T00:08:14;7.78;;;5.25;;
58516;SDS011;44308;50.810;0.284;2022-07-30T00:10:40;9.02;;;5.32;;
58516;SDS011;44308;50.810;0.284;2022-07-30T00:13:06;11.00;;;5.25;;
58516;SDS011;44308;50.810;0.284;2022-07-30T00:15:32;10.80;;;6.57;;
58516;SDS011;44308;50.810;0.284;2022-07-30T00:17:58;6.43;;;5.72;;
58516;SDS011;44308;50.810;0.284;2022-07-30T00:20:24;16.10;;;7.80;;
58516;SDS011;44308;50.810;0.284;2022-07-30T00:22:50;12.57;;;8.35;;
58516;SDS011;44308;50.810;0.284;2022-07-30T00:25:16;14.88;;;9.95;;
58516;SDS011;44308;50.810;0.284;2022-07-30T00:27:42;13.50;;;11.45;;
58516;SDS011;44308;50.810;0.284;2022-07-30T00:30:09;14.93;;;10.88;;
58516;SDS011;44308;50.810;0.284;2022-07-30T00:32:35;14.02;;;11.02;;
58516;SDS011;44308;50.810;0.284;2022-07-30T00:35:01;16.80;;;11.88;;
58516;SDS011;44308;50.810;0.284;2022-07-30T00:37:27;16.10;;;12.32;;
58516;SDS011;44308;50.810;0.284;2022-07-30T00:39:53;15.60;;;13.25;;
58516;SDS011;44308;50.810;0.284;2022-07-30T00:42:19;25.15;;;13.00;;
58516;SDS011;44308;50.810;0.284;2022-07-30T00:44:52;21.13;;;14.77;;
58516;SDS011;44308;50.810;0.284;2022-07-30T00:47:18;23.48;;;15.57;;
58516;SDS011;44308;50.810;0.284;2022-07-30T00:49:45;19.25;;;13.52;;
58516;SDS011;44308;50.810;0.284;2022-07-30T00:52:11;23.02;;;14.20;;
58516;SDS011;44308;50.810;0.284;2022-07-30T00:54:37;15.27;;;13.75;;
58516;SDS011;44308;50.810;0.284;2022-07-30T00:57:03;18.35;;;14.65;;
58516;SDS011;44308;50.810;0.284;2022-07-30T00:59:32;16.65;;;14.15;;
58516;SDS011;44308;50.810;0.284;2022-07-30T01:01:58;14.93;;;12.88;;
58516;SDS011;44308;50.810;0.284;2022-07-30T01:04:25;15.10;;;11.73;;
58516;SDS011;44308;50.810;0.284;2022-07-30T01:06:55;11.57;;;10.20;;
58516;SDS011;44308;50.810;0.284;2022-07-30T01:09:20;12.75;;;10.20;;
58516;SDS011;44308;50.810;0.284;2022-07-30T01:11:49;16.30;;;9.05;;
58516;SDS011;44308;50.810;0.284;2022-07-30T01:14:14;11.40;;;8.60;;
58516;SDS011;44308;50.810;0.284;2022-07-30T01:16:40;10.50;;;9.38;;
58516;SDS011;44308;50.810;0.284;2022-07-30T01:19:19;12.75;;;9.57;;
58516;SDS011;44308;50.810;0.284;2022-07-30T01:25:00;20.35;;;8.68;;
58516;SDS011;44308;50.810;0.284;2022-07-30T01:27:49;10.27;;;7.72;;
58516;SDS011;44308;50.810;0.284;2022-07-30T01:30:28;11.77;;;8.50;;
58516;SDS011;44308;50.810;0.284;2022-07-30T01:32:58;10.10;;;8.10;;
58516;SDS011;44308;50.810;0.284;2022-07-30T01:35:26;9.65;;;7.97;;
58516;SDS011;44308;50.810;0.284;2022-07-30T01:37:53;12.80;;;9.98;;
58516;SDS011;44308;50.810;0.284;2022-07-30T01:40:21;19.67;;;10.27;;
58516;SDS011;44308;50.810;0.284;2022-07-30T01:42:50;13.52;;;10.80;;
58516;SDS011;44308;50.810;0.284;2022-07-30T01:45:22;18.30;;;10.57;;
58516;SDS011;44308;50.810;0.284;2022-07-30T01:47:53;14.82;;;10.43;;
58516;SDS011;44308;50.810;0.284;2022-07-30T01:50:25;12.13;;;10.18;;
58516;SDS011;44308;50.810;0.284;2022-07-30T01:52:53;16.88;;;10.00;;
58516;SDS011;44308;50.810;0.284;2022-07-30T01:55:26;13.13;;;11.13;;
58516;SDS011;44308;50.810;0.284;2022-07-30T01:58:00;11.90;;;10.70;;
58516;SDS011;44308;50.810;0.284;2022-07-30T02:00:29;16.65;;;10.90;;
58516;SDS011;44308;50.810;0.284;2022-07-30T02:02:58;12.38;;;10.85;;
58516;SDS011;44308;50.810;0.284;2022-07-30T02:05:25;14.10;;;11.80;;
58516;SDS011;44308;50.810;0.284;2022-07-30T02:07:55;13.60;;;11.30;;
58516;SDS011;44308;50.810;0.284;2022-07-30T02:12:59;14.95;;;10.73;;
58516;SDS011;44308;50.810;0.284;2022-07-30T02:15:32;13.57;;;11.15;;
58516;SDS011;44308;50.810;0.284;2022-07-30T02:18:03;14.15;;;10.35;;
58516;SDS011;44308;50.810;0.284;2022-07-30T02:20:39;11.27;;;10.25;;
58516;SDS011;44308;50.810;0.284;2022-07-30T02:23:10;15.88;;;10.75;;
58516;SDS011;44308;50.810;0.284;2022-07-30T02:25:41;16.45;;;12.05;;
58516;SDS011;44308;50.810;0.284;2022-07-30T02:28:09;14.85;;;11.75;;
58516;SDS011;44308;50.810;0.284;2022-07-30T02:30:41;13.27;;;11.98;;
58516;SDS011;44308;50.810;0.284;2022-07-30T02:33:11;13.32;;;11.73;;
58516;SDS011;44308;50.810;0.284;2022-07-30T02:35:39;14.38;;;11.63;;
58516;SDS011;44308;50.810;0.284;2022-07-30T02:38:05;15.63;;;10.35;;
58516;SDS011;44308;50.810;0.284;2022-07-30T02:40:34;14.40;;;11.18;;
58516;SDS011;44308;50.810;0.284;2022-07-30T02:43:00;11.90;;;10.70;;
58516;SDS011;44308;50.810;0.284;2022-07-30T02:45:26;10.35;;;9.30;;
58516;SDS011;44308;50.810;0.284;2022-07-30T02:47:56;22.73;;;10.55;;
58516;SDS011;44308;50.810;0.284;2022-07-30T02:50:25;14.55;;;10.98;;
58516;SDS011;44308;50.810;0.284;2022-07-30T02:52:52;13.43;;;11.43;;
58516;SDS011;44308;50.810;0.284;2022-07-30T02:55:19;13.60;;;10.98;;
58516;SDS011;44308;50.810;0.284;2022-07-30T02:57:46;13.00;;;11.70;;
58516;SDS011;44308;50.810;0.284;2022-07-30T03:00:15;20.08;;;12.35;;
58516;SDS011;44308;50.810;0.284;2022-07-30T03:02:41;12.77;;;10.80;;
58516;SDS011;44308;50.810;0.284;2022-07-30T03:05:09;13.10;;;10.98;;
58516;SDS011;44308;50.810;0.284;2022-07-30T03:07:38;11.77;;;10.50;;
58516;SDS011;44308;50.810;0.284;2022-07-30T03:10:05;11.68;;;10.43;;
58516;SDS011;44308;50.810;0.284;2022-07-30T03:12:33;16.38;;;11.77;;
58516;SDS011;44308;50.810;0.284;2022-07-30T03:15:00;16.55;;;12.20;;
58516;SDS011;44308;50.810;0.284;2022-07-30T03:17:27;19.27;;;11.35;;
58516;SDS011;44308;50.810;0.284;2022-07-30T03:19:57;16.42;;;10.77;;
58516;SDS011;44308;50.810;0.284;2022-07-30T03:22:25;17.88;;;10.73;;
58516;SDS011;44308;50.810;0.284;2022-07-30T03:24:51;16.30;;;11.52;;
58516;SDS011;44308;50.810;0.284;2022-07-30T03:27:18;14.15;;;11.50;;
58516;SDS011;44308;50.810;0.284;2022-07-30T03:29:46;15.15;;;11.57;;
58516;SDS011;44308;50.810;0.284;2022-07-30T03:32:16;21.48;;;11.55;;
58516;SDS011;44308;50.810;0.284;2022-07-30T03:34:46;12.52;;;10.18;;
58516;SDS011;44308;50.810;0.284;2022-07-30T03:37:12;13.85;;;10.73;;
58516;SDS011;44308;50.810;0.284;2022-07-30T03:39:39;12.55;;;10.13;;
58516;SDS011;44308;50.810;0.284;2022-07-30T03:42:05;15.13;;;10.90;;
58516;SDS011;44308;50.810;0.284;2022-07-30T03:44:33;18.63;;;10.90;;
58516;SDS011;44308;50.810;0.284;2022-07-30T03:46:59;15.02;;;10.30;;
58516;SDS011;44308;50.810;0.284;2022-07-30T03:49:26;12.45;;;10.25;;
58516;SDS011;44308;50.810;0.284;2022-07-30T03:51:53;21.25;;;11.45;;
58516;SDS011;44308;50.810;0.284;2022-07-30T03:57:05;12.93;;;11.63;;
58516;SDS011;44308;50.810;0.284;2022-07-30T03:59:31;12.13;;;10.98;;
58516;SDS011;44308;50.810;0.284;2022-07-30T04:02:01;14.25;;;10.93;;
58516;SDS011;44308;50.810;0.284;2022-07-30T04:04:27;23.88;;;11.98;;
58516;SDS011;44308;50.810;0.284;2022-07-30T04:06:54;12.98;;;11.68;;
58516;SDS011;44308;50.810;0.284;2022-07-30T04:09:22;17.83;;;12.50;;
58516;SDS011;44308;50.810;0.284;2022-07-30T04:11:51;12.65;;;11.23;;
58516;SDS011;44308;50.810;0.284;2022-07-30T04:14:17;12.55;;;11.38;;
58516;SDS011;44308;50.810;0.284;2022-07-30T04:19:41;15.20;;;11.35;;
58516;SDS011;44308;50.810;0.284;2022-07-30T04:22:10;14.05;;;11.70;;
58516;SDS011;44308;50.810;0.284;2022-07-30T04:24:40;13.02;;;11.57;;
58516;SDS011;44308;50.810;0.284;2022-07-30T04:27:08;19.02;;;13.10;;
58516;SDS011;44308;50.810;0.284;2022-07-30T04:29:34;13.73;;;12.40;;
58516;SDS011;44308;50.810;0.284;2022-07-30T04:32:00;21.25;;;14.30;;
58516;SDS011;44308;50.810;0.284;2022-07-30T04:34:26;15.90;;;14.25;;
58516;SDS011;44308;50.810;0.284;2022-07-30T04:36:53;18.42;;;13.52;;
58516;SDS011;44308;50.810;0.284;2022-07-30T04:39:18;14.80;;;13.38;;
58516;SDS011;44308;50.810;0.284;2022-07-30T04:41:44;16.42;;;13.60;;
58516;SDS011;44308;50.810;0.284;2022-07-30T04:44:10;15.10;;;13.68;;
58516;SDS011;44308;50.810;0.284;2022-07-30T04:46:36;16.70;;;14.98;;
58516;SDS011;44308;50.810;0.284;2022-07-30T04:49:02;18.67;;;15.85;;
58516;SDS011;44308;50.810;0.284;2022-07-30T04:51:28;21.45;;;14.02;;
58516;SDS011;44308;50.810;0.284;2022-07-30T04:53:57;13.85;;;12.45;;
58516;SDS011;44308;50.810;0.284;2022-07-30T04:56:28;16.55;;;13.35;;
58516;SDS011;44308;50.810;0.284;2022-07-30T04:58:56;13.48;;;12.23;;
58516;SDS011;44308;50.810;0.284;2022-07-30T05:01:26;19.05;;;12.48;;
58516;SDS011;44308;50.810;0.284;2022-07-30T05:03:57;13.23;;;11.27;;
58516;SDS011;44308;50.810;0.284;2022-07-30T05:06:25;12.18;;;10.93;;
58516;SDS011;44308;50.810;0.284;2022-07-30T05:08:55;17.92;;;11.48;;
58516;SDS011;44308;50.810;0.284;2022-07-30T05:11:22;12.02;;;10.90;;
58516;SDS011;44308;50.810;0.284;2022-07-30T05:13:47;12.82;;;11.43;;
58516;SDS011;44308;50.810;0.284;2022-07-30T05:16:13;24.20;;;12.05;;
58516;SDS011;44308;50.810;0.284;2022-07-30T05:18:40;15.15;;;10.73;;
58516;SDS011;44308;50.810;0.284;2022-07-30T05:21:05;12.93;;;10.95;;
58516;SDS011;44308;50.810;0.284;2022-07-30T05:23:31;13.48;;;12.00;;
58516;SDS011;44308;50.810;0.284;2022-07-30T05:25:58;12.68;;;10.60;;
58516;SDS011;44308;50.810;0.284;2022-07-30T05:28:24;18.25;;;11.93;;
58516;SDS011;44308;50.810;0.284;2022-07-30T05:30:53;14.05;;;9.45;;
58516;SDS011;44308;50.810;0.284;2022-07-30T05:33:20;14.60;;;10.35;;
58516;SDS011;44308;50.810;0.284;2022-07-30T05:35:47;14.85;;;10.95;;
58516;SDS011;44308;50.810;0.284;2022-07-30T05:38:13;19.65;;;11.40;;
58516;SDS011;44308;50.810;0.284;2022-07-30T05:40:40;13.27;;;10.23;;
58516;SDS011;44308;50.810;0.284;2022-07-30T05:43:06;14.63;;;9.82;;
58516;SDS011;44308;50.810;0.284;2022-07-30T05:45:32;20.30;;;9.60;;
58516;SDS011;44308;50.810;0.284;2022-07-30T05:47:58;15.45;;;10.57;;
58516;SDS011;44308;50.810;0.284;2022-07-30T05:50:23;25.05;;;9.82;;
58516;SDS011;44308;50.810;0.284;2022-07-30T05:52:49;10.18;;;8.27;;
58516;SDS011;44308;50.810;0.284;2022-07-30T05:55:15;12.40;;;10.20;;
58516;SDS011;44308;50.810;0.284;2022-07-30T05:57:41;17.35;;;10.95;;
58516;SDS011;44308;50.810;0.284;2022-07-30T06:00:07;17.13;;;9.48;;
58516;SDS011;44308;50.810;0.284;2022-07-30T06:02:35;12.60;;;9.60;;
58516;SDS011;44308;50.810;0.284;2022-07-30T06:05:01;11.13;;;9.15;;
58516;SDS011;44308;50.810;0.284;2022-07-30T06:07:27;13.02;;;8.68;;
58516;SDS011;44308;50.810;0.284;2022-07-30T06:09:53;10.95;;;9.32;;
58516;SDS011;44308;50.810;0.284;2022-07-30T06:12:24;11.05;;;9.23;;
58516;SDS011;44308;50.810;0.284;2022-07-30T06:14:50;12.25;;;9.18;;
58516;SDS011;44308;50.810;0.284;2022-07-30T06:17:16;16.42;;;10.07;;
58516;SDS011;44308;50.810;0.284;2022-07-30T06:19:42;16.08;;;9.50;;
58516;SDS011;44308;50.810;0.284;2022-07-30T06:22:08;14.35;;;9.25;;
58516;SDS011;44308;50.810;0.284;2022-07-30T06:24:33;16.90;;;9.20;;
58516;SDS011;44308;50.810;0.284;2022-07-30T06:26:59;14.30;;;8.93;;
58516;SDS011;44308;50.810;0.284;2022-07-30T06:29:25;10.70;;;9.65;;
58516;SDS011;44308;50.810;0.284;2022-07-30T06:31:51;12.63;;;9.20;;
58516;SDS011;44308;50.810;0.284;2022-07-30T06:34:17;10.85;;;9.60;;
58516;SDS011;44308;50.810;0.284;2022-07-30T06:36:42;12.38;;;9.07;;
58516;SDS011;44308;50.810;0.284;2022-07-30T06:39:08;12.32;;;9.38;;
58516;SDS011;44308;50.810;0.284;2022-07-30T06:41:34;13.02;;;9.15;;
58516;SDS011;44308;50.810;0.284;2022-07-30T06:44:02;15.43;;;8.80;;
58516;SDS011;44308;50.810;0.284;2022-07-30T06:46:28;9.55;;;8.07;;
58516;SDS011;44308;50.810;0.284;2022-07-30T06:48:54;8.77;;;7.95;;
58516;SDS011;44308;50.810;0.284;2022-07-30T06:51:20;14.05;;;7.70;;
58516;SDS011;44308;50.810;0.284;2022-07-30T06:53:46;15.50;;;7.68;;
58516;SDS011;44308;50.810;0.284;2022-07-30T06:56:12;11.05;;;7.47;;
58516;SDS011;44308;50.810;0.284;2022-07-30T06:58:38;13.95;;;7.90;;
58516;SDS011;44308;50.810;0.284;2022-07-30T07:01:04;9.95;;;7.00;;
58516;SDS011;44308;50.810;0.284;2022-07-30T07:03:30;13.30;;;7.38;;
58516;SDS011;44308;50.810;0.284;2022-07-30T07:05:56;11.80;;;6.65;;
58516;SDS011;44308;50.810;0.284;2022-07-30T07:08:22;11.40;;;7.63;;
58516;SDS011;44308;50.810;0.284;2022-07-30T07:10:50;18.83;;;8.85;;
58516;SDS011;44308;50.810;0.284;2022-07-30T07:13:16;9.77;;;7.20;;
58516;SDS011;44308;50.810;0.284;2022-07-30T07:15:42;8.30;;;6.00;;
58516;SDS011;44308;50.810;0.284;2022-07-30T07:18:07;9.90;;;6.03;;
58516;SDS011;44308;50.810;0.284;2022-07-30T07:20:33;8.00;;;5.60;;
58516;SDS011;44308;50.810;0.284;2022-07-30T07:22:59;16.25;;;7.15;;
58516;SDS011;44308;50.810;0.284;2022-07-30T07:25:26;13.35;;;6.32;;
58516;SDS011;44308;50.810;0.284;2022-07-30T07:27:52;7.30;;;5.93;;
58516;SDS011;44308;50.810;0.284;2022-07-30T07:30:18;13.52;;;5.97;;
58516;SDS011;44308;50.810;0.284;2022-07-30T07:32:44;13.95;;;5.55;;
58516;SDS011;44308;50.810;0.284;2022-07-30T07:35:09;6.28;;;4.63;;
58516;SDS011;44308;50.810;0.284;2022-07-30T07:37:37;10.05;;;5.32;;
58516;SDS011;44308;50.810;0.284;2022-07-30T07:40:03;10.60;;;4.85;;
58516;SDS011;44308;50.810;0.284;2022-07-30T07:42:30;5.70;;;4.15;;
58516;SDS011;44308;50.810;0.284;2022-07-30T07:44:55;11.27;;;5.07;;
58516;SDS011;44308;50.810;0.284;2022-07-30T07:47:21;8.15;;;5.00;;
58516;SDS011;44308;50.810;0.284;2022-07-30T07:49:47;14.88;;;5.10;;
58516;SDS011;44308;50.810;0.284;2022-07-30T07:52:16;8.80;;;4.80;;
58516;SDS011;44308;50.810;0.284;2022-07-30T07:54:41;11.35;;;5.85;;
58516;SDS011;44308;50.810;0.284;2022-07-30T07:57:07;9.68;;;5.85;;
58516;SDS011;44308;50.810;0.284;2022-07-30T07:59:33;12.13;;;5.85;;
58516;SDS011;44308;50.810;0.284;2022-07-30T08:01:59;9.27;;;5.72;;
58516;SDS011;44308;50.810;0.284;2022-07-30T08:04:24;12.45;;;6.72;;
58516;SDS011;44308;50.810;0.284;2022-07-30T08:06:50;7.47;;;5.15;;
58516;SDS011;44308;50.810;0.284;2022-07-30T08:09:16;11.60;;;5.43;;
58516;SDS011;44308;50.810;0.284;2022-07-30T08:11:41;11.45;;;6.03;;
58516;SDS011;44308;50.810;0.284;2022-07-30T08:14:07;8.07;;;6.00;;
58516;SDS011;44308;50.810;0.284;2022-07-30T08:16:33;21.15;;;6.68;;
58516;SDS011;44308;50.810;0.284;2022-07-30T08:18:59;12.70;;;6.68;;
58516;SDS011;44308;50.810;0.284;2022-07-30T08:21:25;16.45;;;7.13;;
58516;SDS011;44308;50.810;0.284;2022-07-30T08:23:50;15.15;;;7.43;;
58516;SDS011;44308;50.810;0.284;2022-07-30T08:26:16;12.93;;;7.22;;
58516;SDS011;44308;50.810;0.284;2022-07-30T08:28:42;16.90;;;8.50;;
58516;SDS011;44308;50.810;0.284;2022-07-30T08:31:09;12.93;;;8.10;;
58516;SDS011;44308;50.810;0.284;2022-07-30T08:33:36;12.57;;;7.38;;
58516;SDS011;44308;50.810;0.284;2022-07-30T08:36:02;12.13;;;6.63;;
58516;SDS011;44308;50.810;0.284;2022-07-30T08:38:27;11.07;;;7.95;;
58516;SDS011;44308;50.810;0.284;2022-07-30T08:40:54;14.45;;;8.50;;
58516;SDS011;44308;50.810;0.284;2022-07-30T08:43:21;10.60;;;7.82;;
58516;SDS011;44308;50.810;0.284;2022-07-30T08:45:50;12.52;;;7.72;;
58516;SDS011;44308;50.810;0.284;2022-07-30T08:48:19;10.75;;;8.38;;
58516;SDS011;44308;50.810;0.284;2022-07-30T08:50:48;21.52;;;11.55;;
58516;SDS011;44308;50.810;0.284;2022-07-30T08:53:15;12.85;;;9.95;;
58516;SDS011;44308;50.810;0.284;2022-07-30T08:55:42;24.42;;;11.40;;
58516;SDS011;44308;50.810;0.284;2022-07-30T08:58:23;20.50;;;10.38;;
58516;SDS011;44308;50.810;0.284;2022-07-30T09:00:59;15.80;;;11.30;;
58516;SDS011;44308;50.810;0.284;2022-07-30T09:03:25;12.73;;;10.70;;
58516;SDS011;44308;50.810;0.284;2022-07-30T09:05:51;17.60;;;10.90;;
58516;SDS011;44308;50.810;0.284;2022-07-30T09:08:17;10.45;;;8.07;;
58516;SDS011;44308;50.810;0.284;2022-07-30T09:10:43;13.73;;;8.40;;
58516;SDS011;44308;50.810;0.284;2022-07-30T09:13:21;13.95;;;9.90;;
58516;SDS011;44308;50.810;0.284;2022-07-30T09:15:52;11.93;;;8.50;;
58516;SDS011;44308;50.810;0.284;2022-07-30T09:18:28;15.98;;;9.27;;
58516;SDS011;44308;50.810;0.284;2022-07-30T09:21:17;16.63;;;9.05;;
58516;SDS011;44308;50.810;0.284;2022-07-30T09:26:26;10.57;;;6.57;;
58516;SDS011;44308;50.810;0.284;2022-07-30T09:28:53;10.90;;;7.05;;
58516;SDS011;44308;50.810;0.284;2022-07-30T09:31:22;13.13;;;6.82;;
58516;SDS011;44308;50.810;0.284;2022-07-30T09:33:48;10.30;;;7.22;;
58516;SDS011;44308;50.810;0.284;2022-07-30T09:36:14;14.05;;;7.00;;
58516;SDS011;44308;50.810;0.284;2022-07-30T09:41:07;16.02;;;9.65;;
58516;SDS011;44308;50.810;0.284;2022-07-30T09:43:41;15.45;;;9.18;;
58516;SDS011;44308;50.810;0.284;2022-07-30T09:46:08;24.95;;;14.90;;
58516;SDS011;44308;50.810;0.284;2022-07-30T09:48:34;16.92;;;10.30;;
58516;SDS011;44308;50.810;0.284;2022-07-30T09:51:00;19.48;;;10.60;;
58516;SDS011;44308;50.810;0.284;2022-07-30T09:53:28;19.05;;;11.73;;
58516;SDS011;44308;50.810;0.284;2022-07-30T09:55:55;20.95;;;12.23;;
58516;SDS011;44308;50.810;0.284;2022-07-30T09:58:22;15.20;;;11.32;;
58516;SDS011;44308;50.810;0.284;2022-07-30T10:00:48;19.83;;;10.95;;
58516;SDS011;44308;50.810;0.284;2022-07-30T10:03:23;23.60;;;11.80;;
58516;SDS011;44308;50.810;0.284;2022-07-30T10:05:54;28.45;;;18.65;;
58516;SDS011;44308;50.810;0.284;2022-07-30T10:08:40;19.52;;;11.32;;
58516;SDS011;44308;50.810;0.284;2022-07-30T10:11:12;15.77;;;7.38;;
58516;SDS011;44308;50.810;0.284;2022-07-30T10:13:40;26.65;;;11.68;;
58516;SDS011;44308;50.810;0.284;2022-07-30T10:16:07;19.08;;;11.23;;
58516;SDS011;44308;50.810;0.284;2022-07-30T10:18:33;18.73;;;8.70;;
58516;SDS011;44308;50.810;0.284;2022-07-30T10:21:00;24.40;;;10.18;;
58516;SDS011;44308;50.810;0.284;2022-07-30T10:23:29;9.65;;;5.20;;
58516;SDS011;44308;50.810;0.284;2022-07-30T10:26:02;9.43;;;4.70;;
58516;SDS011;44308;50.810;0.284;2022-07-30T10:28:29;19.48;;;9.35;;
58516;SDS011;44308;50.810;0.284;2022-07-30T10:30:56;12.38;;;5.00;;
58516;SDS011;44308;50.810;0.284;2022-07-30T10:33:27;10.63;;;6.63;;
58516;SDS011;44308;50.810;0.284;2022-07-30T10:35:53;11.32;;;5.68;;
58516;SDS011;44308;50.810;0.284;2022-07-30T10:38:20;9.73;;;5.32;;
58516;SDS011;44308;50.810;0.284;2022-07-30T10:40:55;10.73;;;6.13;;
58516;SDS011;44308;50.810;0.284;2022-07-30T10:46:25;7.70;;;6.00;;
58516;SDS011;44308;50.810;0.284;2022-07-30T10:49:14;9.30;;;3.88;;
58516;SDS011;44308;50.810;0.284;2022-07-30T10:51:45;25.08;;;12.05;;
58516;SDS011;44308;50.810;0.284;2022-07-30T11:02:26;10.15;;;4.20;;
58516;SDS011;44308;50.810;0.284;2022-07-30T11:07:45;18.77;;;9.57;;
58516;SDS011;44308;50.810;0.284;2022-07-30T11:10:33;20.15;;;5.35;;
58516;SDS011;44308;50.810;0.284;2022-07-30T11:13:06;8.15;;;5.13;;
58516;SDS011;44308;50.810;0.284;2022-07-30T11:18:20;18.05;;;8.60;;
58516;SDS011;44308;50.810;0.284;2022-07-30T11:21:21;3.38;;;2.33;;
58516;SDS011;44308;50.810;0.284;2022-07-30T11:23:46;7.18;;;4.95;;
58516;SDS011;44308;50.810;0.284;2022-07-30T11:26:45;4.90;;;3.35;;
58516;SDS011;44308;50.810;0.284;2022-07-30T11:29:07;6.28;;;3.53;;
58516;SDS011;44308;50.810;0.284;2022-07-30T11:31:57;9.45;;;4.47;;
58516;SDS011;44308;50.810;0.284;2022-07-30T11:34:42;10.48;;;3.63;;
58516;SDS011;44308;50.810;0.284;2022-07-30T11:37:10;9.02;;;3.35;;
58516;SDS011;44308;50.810;0.284;2022-07-30T11:47:45;8.60;;;5.53;;
58516;SDS011;44308;50.810;0.284;2022-07-30T11:50:26;13.35;;;4.32;;
58516;SDS011;44308;50.810;0.284;2022-07-30T11:55:29;11.07;;;5.03;;
58516;SDS011;44308;50.810;0.284;2022-07-30T11:58:04;15.65;;;7.82;;
58516;SDS011;44308;50.810;0.284;2022-07-30T12:00:36;14.77;;;7.07;;
58516;SDS011;44308;50.810;0.284;2022-07-30T12:03:08;10.13;;;6.70;;
58516;SDS011;44308;50.810;0.284;2022-07-30T12:05:39;12.35;;;4.20;;
58516;SDS011;44308;50.810;0.284;2022-07-30T12:08:06;13.25;;;5.50;;
58516;SDS011;44308;50.810;0.284;2022-07-30T12:10:32;26.65;;;15.38;;
58516;SDS011;44308;50.810;0.284;2022-07-30T12:13:09;16.63;;;9.18;;
58516;SDS011;44308;50.810;0.284;2022-07-30T12:15:42;13.93;;;8.07;;
58516;SDS011;44308;50.810;0.284;2022-07-30T12:18:09;14.48;;;9.27;;
58516;SDS011;44308;50.810;0.284;2022-07-30T12:20:41;18.80;;;10.90;;
58516;SDS011;44308;50.810;0.284;2022-07-30T12:23:10;15.77;;;6.10;;
58516;SDS011;44308;50.810;0.284;2022-07-30T12:25:40;16.40;;;5.85;;
58516;SDS011;44308;50.810;0.284;2022-07-30T12:28:07;17.38;;;5.55;;
58516;SDS011;44308;50.810;0.284;2022-07-30T12:30:41;6.25;;;3.83;;
58516;SDS011;44308;50.810;0.284;2022-07-30T12:33:07;15.55;;;4.47;;
58516;SDS011;44308;50.810;0.284;2022-07-30T12:35:43;9.48;;;4.78;;
58516;SDS011;44308;50.810;0.284;2022-07-30T12:38:14;8.15;;;4.72;;
58516;SDS011;44308;50.810;0.284;2022-07-30T12:40:57;20.38;;;7.05;;
58516;SDS011;44308;50.810;0.284;2022-07-30T12:46:21;6.03;;;2.80;;
58516;SDS011;44308;50.810;0.284;2022-07-30T12:48:56;5.00;;;3.35;;
58516;SDS011;44308;50.810;0.284;2022-07-30T12:51:34;13.50;;;3.40;;
58516;SDS011;44308;50.810;0.284;2022-07-30T12:54:13;10.45;;;6.05;;
58516;SDS011;44308;50.810;0.284;2022-07-30T12:56:44;9.38;;;4.32;;
58516;SDS011;44308;50.810;0.284;2022-07-30T12:59:25;8.70;;;3.45;;
58516;SDS011;44308;50.810;0.284;2022-07-30T13:01:51;10.52;;;4.18;;
58516;SDS011;44308;50.810;0.284;2022-07-30T13:04:20;8.40;;;3.17;;
58516;SDS011;44308;50.810;0.284;2022-07-30T13:07:19;10.98;;;8.00;;
58516;SDS011;44308;50.810;0.284;2022-07-30T13:09:38;10.13;;;3.63;;
58516;SDS011;44308;50.810;0.284;2022-07-30T13:12:04;8.07;;;3.67;;
58516;SDS011;44308;50.810;0.284;2022-07-30T13:14:31;10.30;;;4.85;;
58516;SDS011;44308;50.810;0.284;2022-07-30T13:17:01;7.47;;;3.80;;
58516;SDS011;44308;50.810;0.284;2022-07-30T13:19:27;3.95;;;2.65;;
58516;SDS011;44308;50.810;0.284;2022-07-30T13:21:53;7.30;;;4.68;;
58516;SDS011;44308;50.810;0.284;2022-07-30T13:24:19;8.13;;;3.33;;
58516;SDS011;44308;50.810;0.284;2022-07-30T13:26:45;5.82;;;4.40;;
58516;SDS011;44308;50.810;0.284;2022-07-30T13:29:11;8.02;;;4.90;;
58516;SDS011;44308;50.810;0.284;2022-07-30T13:31:38;5.78;;;1.90;;
58516;SDS011;44308;50.810;0.284;2022-07-30T13:34:06;5.00;;;3.30;;
58516;SDS011;44308;50.810;0.284;2022-07-30T13:36:32;10.25;;;6.55;;
58516;SDS011;44308;50.810;0.284;2022-07-30T13:38:58;4.45;;;2.00;;
58516;SDS011;44308;50.810;0.284;2022-07-30T13:41:24;8.48;;;4.88;;
58516;SDS011;44308;50.810;0.284;2022-07-30T13:43:49;13.32;;;7.60;;
58516;SDS011;44308;50.810;0.284;2022-07-30T13:46:15;4.22;;;2.25;;
58516;SDS011;44308;50.810;0.284;2022-07-30T13:48:45;9.23;;;3.17;;
58516;SDS011;44308;50.810;0.284;2022-07-30T13:51:11;10.88;;;6.05;;
58516;SDS011;44308;50.810;0.284;2022-07-30T13:53:36;6.53;;;3.63;;
58516;SDS011;44308;50.810;0.284;2022-07-30T13:56:02;7.20;;;2.97;;
58516;SDS011;44308;50.810;0.284;2022-07-30T13:58:28;9.48;;;4.18;;
58516;SDS011;44308;50.810;0.284;2022-07-30T14:00:54;9.13;;;3.85;;
58516;SDS011;44308;50.810;0.284;2022-07-30T14:03:20;4.20;;;3.30;;
58516;SDS011;44308;50.810;0.284;2022-07-30T14:05:46;10.80;;;6.18;;
58516;SDS011;44308;50.810;0.284;2022-07-30T14:08:11;5.82;;;2.75;;
58516;SDS011;44308;50.810;0.284;2022-07-30T14:10:38;6.40;;;3.45;;
58516;SDS011;44308;50.810;0.284;2022-07-30T14:13:04;5.05;;;3.25;;
58516;SDS011;44308;50.810;0.284;2022-07-30T14:15:32;5.63;;;2.88;;
58516;SDS011;44308;50.810;0.284;2022-07-30T14:17:59;3.83;;;2.55;;
58516;SDS011;44308;50.810;0.284;2022-07-30T14:20:25;3.50;;;3.10;;
58516;SDS011;44308;50.810;0.284;2022-07-30T14:22:51;5.30;;;2.00;;
58516;SDS011;44308;50.810;0.284;2022-07-30T14:25:18;4.38;;;3.33;;
58516;SDS011;44308;50.810;0.284;2022-07-30T14:27:44;7.05;;;3.85;;
58516;SDS011;44308;50.810;0.284;2022-07-30T14:30:10;6.30;;;3.60;;
58516;SDS011;44308;50.810;0.284;2022-07-30T14:32:37;5.45;;;4.78;;
58516;SDS011;44308;50.810;0.284;2022-07-30T14:35:04;8.77;;;5.25;;
58516;SDS011;44308;50.810;0.284;2022-07-30T14:37:33;3.88;;;2.45;;
58516;SDS011;44308;50.810;0.284;2022-07-30T14:40:06;5.72;;;3.45;;
58516;SDS011;44308;50.810;0.284;2022-07-30T14:42:34;4.10;;;1.98;;
58516;SDS011;44308;50.810;0.284;2022-07-30T14:45:04;9.40;;;5.88;;
58516;SDS011;44308;50.810;0.284;2022-07-30T14:47:34;13.98;;;4.00;;
58516;SDS011;44308;50.810;0.284;2022-07-30T14:50:00;6.95;;;3.10;;
58516;SDS011;44308;50.810;0.284;2022-07-30T14:52:29;16.35;;;5.15;;
58516;SDS011;44308;50.810;0.284;2022-07-30T14:54:55;50.50;;;34.45;;
58516;SDS011;44308;50.810;0.284;2022-07-30T14:57:21;1.45;;;0.98;;
58516;SDS011;44308;50.810;0.284;2022-07-30T14:59:50;2.70;;;1.40;;
58516;SDS011;44308;50.810;0.284;2022-07-30T15:02:19;4.88;;;1.33;;
58516;SDS011;44308;50.810;0.284;2022-07-30T15:04:45;3.28;;;1.33;;
58516;SDS011;44308;50.810;0.284;2022-07-30T15:07:11;8.80;;;1.25;;
58516;SDS011;44308;50.810;0.284;2022-07-30T15:09:37;3.03;;;1.25;;
58516;SDS011;44308;50.810;0.284;2022-07-30T15:12:06;2.78;;;1.70;;
58516;SDS011;44308;50.810;0.284;2022-07-30T15:14:35;2.15;;;1.17;;
58516;SDS011;44308;50.810;0.284;2022-07-30T15:17:01;9.18;;;1.50;;
58516;SDS011;44308;50.810;0.284;2022-07-30T15:19:27;1.85;;;1.13;;
58516;SDS011;44308;50.810;0.284;2022-07-30T15:21:53;3.17;;;1.38;;
58516;SDS011;44308;50.810;0.284;2022-07-30T15:24:18;3.63;;;1.60;;
58516;SDS011;44308;50.810;0.284;2022-07-30T15:26:45;2.92;;;1.65;;